Wednesday, October 17, 2018, 1:05 PM EDT
Back to Local

KPHL, Philadelphia International Airpt

Location: Philadelphia, PA, United States Lat: 39.867
Local Time: 1:05 PM EDT (17:05 GMT) Lon: -75.233
Time Zone: US/Eastern Elev: 19 ft

Show me the last for .
Show Coded

Time T Td Feel RH Dir Speed Gust Alt SLP Vis Weather Sky Remarks
2018-10-17 11:54 60 37 - 42 250° 17 22 30.02 30.01 10 FEW280 None
2018-10-17 10:54 58 37 - 45 240° 18 - 30.03 30.03 10 SCT280 None
2018-10-17 09:54 55 38 - 52 260° 15 - 30.05 30.04 10 SCT280 None
2018-10-17 08:54 52 41 - 66 220° 12 - 30.05 30.05 10 SCT280 None
2018-10-17 07:54 50 40 47 68 240° 7 - 30.03 30.03 10 BKN280 6-hr Min Temp (8am): 48.0°F
6-hr Max Temp (8am): 52.0°F
2018-10-17 06:54 51 38 - 60 260° 8 - 30.05 30.05 10 FEW240 BKN280 None
2018-10-17 05:54 50 42 47 74 310° 7 - 30.05 30.05 10 SCT240 BKN280 None
2018-10-17 04:54 50 42 47 74 260° 8 - 30.05 30.05 10 OVC280 None
2018-10-17 03:54 50 41 48 71 270° 6 - 30.05 30.04 10 OVC280 None
2018-10-17 02:54 51 41 - 68 270° 5 - 30.06 30.06 10 OVC280 None
2018-10-17 01:54 52 43 - 71 280° 6 - 30.08 30.07 10 BKN240 OVC280 6-hr Min Temp (2am): 51.1°F
6-hr Max Temp (2am): 55.0°F
2018-10-16 23:54 53 43 - 68 230° 12 - 30.09 30.09 10 BKN240 None
2018-10-16 22:54 54 40 - 58 230° 10 - 30.10 30.09 10 OVC230 None
2018-10-16 21:54 53 42 - 66 200° 6 - 30.10 30.10 10 SCT160 OVC250 None
2018-10-16 20:54 54 37 - 52 260° 6 - 30.11 30.11 10 OVC230 None
2018-10-16 19:54 54 35 - 48 280° 7 - 30.11 30.11 10 OVC250 6-hr Min Temp (8pm): 54.0°F
6-hr Max Temp (8pm): 57.9°F
2018-10-16 18:54 54 34 - 46 290° 6 - 30.10 30.10 10 OVC250 None
2018-10-16 17:54 55 33 - 43 290° 10 - 30.10 30.10 10 FEW200 OVC250 None
2018-10-16 16:54 56 30 - 36 280° 14 - 30.11 30.10 10 SCT200 BKN260 None
2018-10-16 15:54 57 32 - 38 290° 13 - 30.11 30.10 10 FEW200 BKN260 None
2018-10-16 14:54 56 34 - 43 200° 6 - 30.11 30.11 10 FEW200 BKN280 None
2018-10-16 13:54 56 35 - 45 200° 7 - 30.14 30.13 10 FEW230 BKN280 6-hr Min Temp (2pm): 50.0°F
6-hr Max Temp (2pm): 57.0°F

Support USWX by starting your Amazon purchase here.